Malden, Missouri
Current Conditions -  °F | °C
As of 2:53 PM on Tuesday 27 Jan 2015 (Local Time) from KPOF Reporting Station
Clear Clear  
Wind Chill: 52°   Ceiling: Unl
Heat Index: 52°   Visibility: 10mi
Dew Point: 32°   Wind: 0mph
Humidity: 47%   Direction: NA
Pressure: 30.12"   Gusts: NA
Location:  36.56°N, 89.97°W
Report Text: KPOF 272053Z AUTO 00000KT 10SM CLR 11/00 A3012 RMK AO2 SLP205 T01110000 55006
Loading
Personal Weather Stations






























Interactive Weather Map New forecast layout! Learn more

10-Day Weather Forecast

Advertisements
Track Severe Weather on mobile